Time;durP1;ratioP1;P1;durP2;ratioP2;P2;SDS_P1;SDS_P2;PMS_P1;PMS_P2;Temp;Humidity;BMP_temperature;BMP_pressure;BME280_temperature;BME280_humidity;BME280_pressure;Samples;Min_cycle;Max_cycle;Signal;HPM_P1;HPM_P2
2023/05/09 00:00:36;;;;;;;2.28;1.90;;;11.60;93.60;;;;;;5020444;28;20179;-92
2023/05/09 00:03:04;;;;;;;2.95;1.88;;;11.50;94.00;;;;;;5019649;28;20237;-93
2023/05/09 00:05:30;;;;;;;7.78;1.83;;;11.40;94.10;;;;;;5014489;28;20270;-91
2023/05/09 00:08:01;;;;;;;5.35;2.50;;;11.40;94.40;;;;;;5019976;28;20301;-91
2023/05/09 00:10:27;;;;;;;5.25;2.33;;;11.40;94.80;;;;;;5021844;28;20229;-94
2023/05/09 00:12:53;;;;;;;3.67;1.95;;;11.30;94.90;;;;;;5025813;28;20224;-91
2023/05/09 00:15:19;;;;;;;4.80;2.50;;;11.30;95.30;;;;;;5023007;28;20179;-93
2023/05/09 00:17:46;;;;;;;4.88;2.70;;;11.30;95.50;;;;;;5026923;28;20187;-92
2023/05/09 00:20:12;;;;;;;3.17;2.33;;;11.30;95.80;;;;;;5020673;28;20545;-90
2023/05/09 00:22:41;;;;;;;5.78;2.75;;;11.20;95.80;;;;;;5013825;28;20317;-88
2023/05/09 00:25:09;;;;;;;5.50;2.45;;;11.20;96.00;;;;;;5020628;28;20197;-92
2023/05/09 00:27:41;;;;;;;6.38;2.78;;;11.20;96.10;;;;;;5015621;28;20216;-92
2023/05/09 00:30:07;;;;;;;2.72;2.33;;;11.20;96.30;;;;;;5027971;28;20190;-93
2023/05/09 00:32:33;;;;;;;5.03;2.17;;;11.10;96.60;;;;;;5016548;28;20186;-94
2023/05/09 00:34:59;;;;;;;8.50;2.50;;;11.10;96.80;;;;;;5031218;28;20183;-93
2023/05/09 00:37:26;;;;;;;5.45;2.55;;;11.10;96.80;;;;;;5027737;28;20183;-93
2023/05/09 00:39:51;;;;;;;5.32;2.42;;;11.10;96.90;;;;;;5026300;28;20187;-94
2023/05/09 00:42:17;;;;;;;7.60;2.78;;;11.10;97.00;;;;;;5027721;28;20182;-93
2023/05/09 00:44:43;;;;;;;5.65;2.63;;;11.10;97.10;;;;;;5014286;28;20233;-94
2023/05/09 00:47:10;;;;;;;7.38;2.58;;;11.00;97.40;;;;;;5025542;28;20783;-90
2023/05/09 00:49:35;;;;;;;5.00;2.75;;;11.00;97.70;;;;;;5014538;28;20241;-93
2023/05/09 00:52:03;;;;;;;4.88;2.50;;;11.00;97.70;;;;;;5013303;28;20187;-93
2023/05/09 00:54:30;;;;;;;4.95;2.30;;;10.90;97.70;;;;;;5001627;28;20179;-91
2023/05/09 00:57:09;;;;;;;9.60;2.42;;;10.90;98.10;;;;;;5013743;28;20218;-93
2023/05/09 00:59:35;;;;;;;7.32;2.65;;;10.80;98.20;;;;;;5011306;28;20187;-93
2023/05/09 01:02:00;;;;;;;4.57;3.05;;;10.80;98.30;;;;;;5007405;28;20187;-91
2023/05/09 01:04:26;;;;;;;4.45;2.67;;;10.80;98.50;;;;;;5001426;28;20745;-94
2023/05/09 01:07:02;;;;;;;3.70;2.38;;;10.70;98.60;;;;;;5005723;28;20262;-93
2023/05/09 01:09:42;;;;;;;3.05;2.10;;;10.70;99.10;;;;;;5014369;28;20194;-93
2023/05/09 01:12:41;;;;;;;6.03;2.78;;;10.70;99.30;;;;;;5014591;28;20614;-93
2023/05/09 01:15:32;;;;;;;5.38;2.45;;;10.60;99.60;;;;;;5011335;28;20187;-95
2023/05/09 01:18:16;;;;;;;7.97;2.50;;;10.60;99.70;;;;;;5011932;28;20223;-93
2023/05/09 01:20:57;;;;;;;8.38;2.60;;;10.60;99.90;;;;;;5012794;28;20179;-93
2023/05/09 01:23:50;;;;;;;8.32;2.83;;;10.50;99.90;;;;;;5013501;28;20230;-93
2023/05/09 01:26:46;;;;;;;6.80;3.13;;;10.40;99.90;;;;;;5014555;28;20182;-93
2023/05/09 01:29:34;;;;;;;3.65;2.55;;;10.50;99.90;;;;;;5012809;28;20187;-92
2023/05/09 01:32:08;;;;;;;7.53;3.00;;;10.40;99.90;;;;;;5014190;28;20521;-92
2023/05/09 01:34:37;;;;;;;5.55;3.28;;;10.40;99.90;;;;;;4994711;28;20183;-92
2023/05/09 01:37:05;;;;;;;5.65;2.90;;;10.40;99.90;;;;;;4995677;28;20611;-93
2023/05/09 01:39:36;;;;;;;3.28;2.80;;;10.30;99.90;;;;;;5014506;28;20171;-90
2023/05/09 01:42:05;;;;;;;6.32;3.03;;;10.30;99.90;;;;;;5014443;28;20317;-93
2023/05/09 01:44:36;;;;;;;4.20;3.22;;;10.40;99.90;;;;;;5014121;28;20213;-93
2023/05/09 01:47:03;;;;;;;4.10;3.05;;;10.40;99.90;;;;;;5013910;28;20258;-93
2023/05/09 01:49:32;;;;;;;6.47;3.20;;;10.30;99.90;;;;;;5014136;28;20298;-92
2023/05/09 01:52:00;;;;;;;5.00;3.03;;;10.30;99.90;;;;;;5013984;28;20206;-94
2023/05/09 01:54:26;;;;;;;7.28;3.38;;;10.30;99.90;;;;;;5014026;28;20175;-94
2023/05/09 01:56:55;;;;;;;6.10;3.67;;;10.30;99.90;;;;;;5014249;28;20180;-95
2023/05/09 01:59:22;;;;;;;6.35;3.58;;;10.20;99.90;;;;;;5017826;28;20206;-93
2023/05/09 02:01:48;;;;;;;6.03;3.67;;;10.20;99.90;;;;;;5019217;28;20178;-94
2023/05/09 02:04:16;;;;;;;10.90;3.58;;;10.20;99.90;;;;;;5024970;28;20208;-91
2023/05/09 02:06:45;;;;;;;5.75;3.63;;;10.20;99.90;;;;;;5018048;28;20339;-92
2023/05/09 02:09:11;;;;;;;5.68;3.72;;;10.20;99.90;;;;;;5017077;28;20226;-94
2023/05/09 02:11:37;;;;;;;4.22;3.35;;;10.20;99.90;;;;;;5017396;28;20610;-93
2023/05/09 02:14:03;;;;;;;5.75;3.65;;;10.10;99.90;;;;;;5033820;28;20209;-94
2023/05/09 02:19:01;;;;;;;4.72;3.60;;;10.10;99.90;;;;;;4976175;28;20244;-92
2023/05/09 02:21:27;;;;;;;4.80;3.65;;;10.00;99.90;;;;;;4977039;28;20641;-92
2023/05/09 02:23:53;;;;;;;6.40;3.72;;;10.00;99.90;;;;;;4976758;28;20200;-91
2023/05/09 02:26:19;;;;;;;4.35;3.70;;;10.00;99.90;;;;;;4976863;28;20169;-92
2023/05/09 02:28:46;;;;;;;7.95;4.30;;;10.00;99.90;;;;;;4976916;28;20189;-92
2023/05/09 02:31:13;;;;;;;9.73;4.05;;;10.00;99.90;;;;;;4978376;28;20225;-92
2023/05/09 02:33:40;;;;;;;6.28;3.85;;;10.00;99.90;;;;;;4976688;28;20212;-91
2023/05/09 02:36:07;;;;;;;6.15;3.72;;;10.00;99.90;;;;;;4976718;28;20184;-91
2023/05/09 02:38:34;;;;;;;12.02;3.95;;;10.00;99.90;;;;;;4969285;28;20680;-92
2023/05/09 02:41:00;;;;;;;5.82;4.10;;;10.00;99.90;;;;;;4976480;28;20189;-92
2023/05/09 02:43:26;;;;;;;5.35;3.78;;;10.00;99.90;;;;;;4976623;28;20722;-92
2023/05/09 02:45:52;;;;;;;7.00;4.07;;;9.90;99.90;;;;;;4976807;28;20177;-92
2023/05/09 02:48:18;;;;;;;6.93;3.85;;;9.90;99.90;;;;;;4977193;28;20187;-91
2023/05/09 02:50:44;;;;;;;6.90;4.13;;;9.90;99.90;;;;;;4976355;28;20515;-91
2023/05/09 02:53:10;;;;;;;9.27;4.30;;;9.90;99.90;;;;;;4976629;28;20204;-92
2023/05/09 02:55:36;;;;;;;6.32;4.13;;;9.90;99.90;;;;;;4976373;28;20185;-92
2023/05/09 02:58:02;;;;;;;5.22;4.25;;;9.80;99.90;;;;;;4972313;28;20236;-91
2023/05/09 03:00:28;;;;;;;8.40;4.40;;;9.80;99.90;;;;;;4987028;28;20215;-91
2023/05/09 03:02:54;;;;;;;5.57;4.13;;;9.80;99.90;;;;;;4995537;28;20203;-92
2023/05/09 03:05:20;;;;;;;5.75;4.38;;;9.80;99.90;;;;;;4995519;28;20259;-92
2023/05/09 03:07:50;;;;;;;5.75;4.32;;;9.80;99.90;;;;;;4995674;28;20199;-92
2023/05/09 03:10:16;;;;;;;5.50;3.80;;;9.80;99.90;;;;;;4975485;28;20188;-91
2023/05/09 03:12:42;;;;;;;6.60;4.20;;;9.80;99.90;;;;;;4986793;28;20212;-91
2023/05/09 03:15:08;;;;;;;4.75;4.03;;;9.80;99.90;;;;;;4983208;28;20188;-91
2023/05/09 03:17:34;;;;;;;6.78;4.65;;;9.80;99.90;;;;;;4975558;28;20406;-91
2023/05/09 03:20:00;;;;;;;9.32;4.35;;;9.80;99.90;;;;;;4975284;28;20185;-91
2023/05/09 03:22:26;;;;;;;8.55;4.05;;;9.80;99.90;;;;;;4975383;28;20201;-92
2023/05/09 03:24:52;;;;;;;5.72;4.18;;;9.80;99.90;;;;;;4975854;28;20183;-91
2023/05/09 03:27:18;;;;;;;5.00;3.38;;;9.80;99.90;;;;;;4975664;28;20256;-91
2023/05/09 03:29:44;;;;;;;7.18;4.35;;;9.70;99.90;;;;;;4975118;28;20219;-91
2023/05/09 03:32:10;;;;;;;6.35;4.20;;;9.80;99.90;;;;;;4975630;28;20617;-91
2023/05/09 03:34:36;;;;;;;8.02;4.57;;;9.80;99.90;;;;;;4975553;28;20185;-91
2023/05/09 03:37:02;;;;;;;6.07;3.90;;;9.80;99.90;;;;;;4975504;28;20531;-91
2023/05/09 03:39:28;;;;;;;8.27;4.53;;;9.80;99.90;;;;;;4975734;28;20525;-91
2023/05/09 03:41:54;;;;;;;4.65;3.97;;;9.80;99.90;;;;;;4976421;28;20175;-91
2023/05/09 03:44:20;;;;;;;7.28;4.07;;;9.80;99.90;;;;;;4975257;28;20208;-92
2023/05/09 03:46:45;;;;;;;4.85;4.20;;;9.80;99.90;;;;;;4975564;28;20173;-93
2023/05/09 03:49:11;;;;;;;5.72;4.30;;;9.70;99.90;;;;;;4963145;28;20185;-91
2023/05/09 03:51:37;;;;;;;5.82;4.32;;;9.80;99.90;;;;;;4955920;28;20293;-92
2023/05/09 03:54:03;;;;;;;8.45;4.30;;;9.80;99.90;;;;;;4955649;28;20252;-93
2023/05/09 03:56:28;;;;;;;5.47;4.35;;;9.80;99.90;;;;;;4955963;28;20178;-91
2023/05/09 03:58:54;;;;;;;7.20;4.45;;;9.80;99.90;;;;;;4968015;28;20195;-92
2023/05/09 04:01:20;;;;;;;4.57;3.97;;;9.70;99.90;;;;;;4974971;28;20199;-91
2023/05/09 04:03:46;;;;;;;6.47;4.07;;;9.70;99.90;;;;;;4974802;28;20220;-90
2023/05/09 04:06:11;;;;;;;8.63;3.97;;;9.70;99.90;;;;;;4975091;28;20168;-92
2023/05/09 04:08:37;;;;;;;5.25;4.53;;;9.70;99.90;;;;;;4974930;28;20204;-93
2023/05/09 04:11:03;;;;;;;5.85;4.47;;;9.80;99.90;;;;;;4974658;28;20177;-91
2023/05/09 04:13:30;;;;;;;5.50;4.55;;;9.80;99.90;;;;;;4974671;28;20208;-91
2023/05/09 04:15:56;;;;;;;7.47;4.28;;;9.80;99.90;;;;;;4974803;28;20226;-91
2023/05/09 04:18:22;;;;;;;5.20;4.30;;;9.80;99.90;;;;;;4974099;28;20252;-91
2023/05/09 04:20:47;;;;;;;7.78;4.32;;;9.80;99.90;;;;;;4974571;28;20199;-91
2023/05/09 04:23:13;;;;;;;6.93;4.93;;;9.80;99.90;;;;;;4974547;28;20200;-91
2023/05/09 04:25:39;;;;;;;7.88;4.85;;;9.80;99.90;;;;;;4974440;28;20608;-91
2023/05/09 04:28:05;;;;;;;7.93;4.45;;;9.80;99.90;;;;;;4974487;28;20188;-92
2023/05/09 04:30:31;;;;;;;6.32;4.28;;;9.80;99.90;;;;;;4974984;28;20168;-91
2023/05/09 04:32:57;;;;;;;5.07;4.25;;;9.80;99.90;;;;;;4991003;28;20256;-91
2023/05/09 04:35:23;;;;;;;6.55;4.25;;;9.90;99.90;;;;;;4974713;28;20181;-91
2023/05/09 04:37:50;;;;;;;9.02;4.78;;;9.90;99.90;;;;;;4974609;28;20199;-91
2023/05/09 04:40:16;;;;;;;7.95;4.63;;;9.90;99.90;;;;;;4976340;28;20193;-90
2023/05/09 04:42:42;;;;;;;6.22;4.72;;;9.90;99.90;;;;;;4974155;28;20258;-91
2023/05/09 04:45:10;;;;;;;5.40;4.25;;;9.90;99.90;;;;;;4974444;28;20703;-92
2023/05/09 04:47:36;;;;;;;6.88;4.85;;;9.90;99.90;;;;;;4978437;28;20322;-91
2023/05/09 04:50:03;;;;;;;7.25;4.35;;;10.00;99.90;;;;;;4979382;28;20189;-90
2023/05/09 04:52:28;;;;;;;8.82;4.88;;;10.10;99.90;;;;;;4974282;28;20215;-90
2023/05/09 04:54:54;;;;;;;7.22;4.70;;;10.30;99.90;;;;;;4974222;28;20741;-91
2023/05/09 04:57:22;;;;;;;5.90;4.20;;;10.30;99.90;;;;;;4973650;28;20255;-91
2023/05/09 04:59:48;;;;;;;6.85;4.40;;;10.40;99.90;;;;;;4973950;28;20204;-91
2023/05/09 05:02:14;;;;;;;4.97;4.30;;;10.50;99.90;;;;;;4973882;28;20223;-91
2023/05/09 05:04:40;;;;;;;5.07;4.25;;;10.60;99.90;;;;;;4973754;28;20196;-91
2023/05/09 05:07:06;;;;;;;5.88;4.20;;;10.70;99.90;;;;;;4973909;28;20196;-92
2023/05/09 05:09:32;;;;;;;8.15;4.18;;;10.80;99.90;;;;;;4974308;28;20168;-90
2023/05/09 05:11:58;;;;;;;5.60;3.92;;;10.90;99.90;;;;;;4974352;28;20196;-91
2023/05/09 05:14:23;;;;;;;9.25;4.40;;;11.00;99.90;;;;;;4973863;28;20258;-91
2023/05/09 05:16:49;;;;;;;10.02;4.55;;;11.20;99.90;;;;;;4973930;28;20275;-91
2023/05/09 05:19:16;;;;;;;7.70;4.32;;;11.30;99.90;;;;;;4973473;28;20287;-96
2023/05/09 05:21:43;;;;;;;6.93;4.53;;;11.30;99.90;;;;;;4974211;28;20239;-93
2023/05/09 05:24:08;;;;;;;7.13;4.15;;;11.40;99.90;;;;;;4975789;28;20208;-92
2023/05/09 05:26:34;;;;;;;7.82;4.28;;;11.50;99.90;;;;;;4974399;28;20173;-93
2023/05/09 05:29:00;;;;;;;6.07;4.57;;;11.50;99.90;;;;;;4974221;28;20190;-93
2023/05/09 05:31:27;;;;;;;5.15;4.30;;;11.50;99.90;;;;;;4973889;28;20599;-93
2023/05/09 05:33:52;;;;;;;9.63;4.38;;;11.70;99.90;;;;;;4974001;28;20208;-95
2023/05/09 05:36:18;;;;;;;4.93;3.78;;;11.70;99.90;;;;;;4973901;28;20207;-94
2023/05/09 05:38:44;;;;;;;6.78;3.83;;;11.90;99.90;;;;;;4975389;28;20620;-93
2023/05/09 05:41:10;;;;;;;6.68;3.90;;;12.00;99.90;;;;;;4979727;28;20168;-91
2023/05/09 05:43:37;;;;;;;4.95;3.97;;;12.10;99.90;;;;;;4983893;28;20243;-93
2023/05/09 05:46:04;;;;;;;4.80;3.95;;;12.10;99.90;;;;;;4982528;28;20196;-92
2023/05/09 05:48:48;;;;;;;5.55;3.90;;;12.20;99.90;;;;;;4976761;28;20169;-94
2023/05/09 05:51:40;;;;;;;5.38;3.92;;;12.20;99.90;;;;;;4975262;28;20176;-91
2023/05/09 05:54:22;;;;;;;5.38;3.95;;;12.20;99.90;;;;;;4974083;28;20200;-91
2023/05/09 05:56:56;;;;;;;8.18;4.38;;;12.20;99.90;;;;;;4972954;28;20175;-92
2023/05/09 05:59:34;;;;;;;6.00;4.13;;;12.30;99.90;;;;;;4972899;28;20252;-91
2023/05/09 06:02:20;;;;;;;6.30;3.78;;;12.40;99.90;;;;;;4973245;28;20195;-92
2023/05/09 06:04:46;;;;;;;6.57;3.92;;;12.50;99.90;;;;;;4973129;28;20192;-91
2023/05/09 06:07:12;;;;;;;4.72;3.88;;;12.60;99.90;;;;;;4972708;28;20728;-91
2023/05/09 06:09:40;;;;;;;4.90;3.80;;;12.60;99.90;;;;;;4973589;28;20184;-91
2023/05/09 06:12:10;;;;;;;7.32;3.88;;;12.70;99.90;;;;;;4973436;28;20187;-92
2023/05/09 06:14:36;;;;;;;5.78;4.22;;;12.70;99.90;;;;;;4973166;28;20195;-92
2023/05/09 06:17:16;;;;;;;7.53;3.78;;;12.70;99.90;;;;;;4972517;28;20676;-92
2023/05/09 06:19:43;;;;;;;6.90;4.00;;;12.80;99.90;;;;;;4973834;28;20831;-93
2023/05/09 06:22:18;;;;;;;5.78;3.67;;;12.90;99.90;;;;;;4972959;28;20271;-92
2023/05/09 06:24:44;;;;;;;5.85;3.88;;;13.10;99.90;;;;;;4975520;28;20204;-92
2023/05/09 06:27:16;;;;;;;4.55;3.70;;;13.30;99.90;;;;;;4974714;28;20188;-93
2023/05/09 06:30:00;;;;;;;5.60;3.50;;;13.50;99.90;;;;;;4983268;28;20198;-94
2023/05/09 06:32:28;;;;;;;6.70;3.35;;;13.70;99.90;;;;;;4992927;28;20191;-93
2023/05/09 06:34:57;;;;;;;4.88;3.40;;;13.80;99.90;;;;;;4992516;28;20183;-92
2023/05/09 06:37:23;;;;;;;8.55;3.70;;;14.00;99.90;;;;;;4992872;28;20258;-92
2023/05/09 06:39:51;;;;;;;9.40;3.78;;;14.00;99.90;;;;;;4992895;28;20663;-92
2023/05/09 06:42:32;;;;;;;5.97;3.20;;;14.20;99.90;;;;;;4992474;28;20176;-93
2023/05/09 06:45:17;;;;;;;5.40;3.53;;;14.30;99.90;;;;;;4994249;28;20267;-93
2023/05/09 06:47:50;;;;;;;4.70;3.13;;;14.40;99.90;;;;;;4996004;28;20628;-91
2023/05/09 06:50:28;;;;;;;10.05;3.40;;;14.50;99.50;;;;;;4996039;28;20164;-91
2023/05/09 06:52:54;;;;;;;4.63;3.15;;;14.50;99.10;;;;;;4996672;28;20295;-91
2023/05/09 06:55:19;;;;;;;6.18;3.50;;;14.50;99.40;;;;;;4995942;28;20202;-93
2023/05/09 06:57:47;;;;;;;7.47;3.40;;;14.60;99.80;;;;;;4995779;28;20659;-92
2023/05/09 07:00:22;;;;;;;7.13;3.50;;;14.70;98.80;;;;;;4995809;28;20183;-93
2023/05/09 07:02:54;;;;;;;5.43;3.50;;;14.70;99.40;;;;;;4995519;28;20199;-93
2023/05/09 07:05:21;;;;;;;3.97;3.05;;;14.80;99.30;;;;;;4995438;28;20250;-92
2023/05/09 07:07:49;;;;;;;6.88;3.30;;;15.00;99.10;;;;;;4984241;28;20176;-92
2023/05/09 07:10:17;;;;;;;9.38;3.70;;;15.00;99.10;;;;;;4976114;28;20173;-93
2023/05/09 07:12:42;;;;;;;5.28;3.25;;;15.20;98.90;;;;;;4975283;28;20203;-92
2023/05/09 07:15:18;;;;;;;4.82;3.25;;;15.30;98.50;;;;;;4975487;28;20539;-92
2023/05/09 07:17:56;;;;;;;8.43;3.30;;;15.30;98.70;;;;;;4975544;28;20220;-93
2023/05/09 07:20:27;;;;;;;7.82;3.50;;;15.50;98.90;;;;;;4975638;28;20183;-92
2023/05/09 07:22:53;;;;;;;7.63;3.58;;;15.60;98.10;;;;;;4974677;28;20216;-93
2023/05/09 07:25:44;;;;;;;4.18;3.08;;;15.70;98.20;;;;;;4974908;28;20168;-92
2023/05/09 07:28:12;;;;;;;3.38;2.90;;;15.90;98.70;;;;;;4974617;28;20659;-91
2023/05/09 07:30:42;;;;;;;7.93;3.00;;;16.00;97.20;;;;;;4975888;28;20180;-92
2023/05/09 07:33:11;;;;;;;5.07;3.45;;;16.10;97.50;;;;;;4975857;28;20196;-93
2023/05/09 07:35:51;;;;;;;5.35;3.28;;;16.20;97.20;;;;;;4976003;28;20184;-92
2023/05/09 07:38:17;;;;;;;5.78;3.35;;;16.30;96.50;;;;;;4975788;28;20212;-92
2023/05/09 07:40:44;;;;;;;4.57;3.20;;;16.30;96.20;;;;;;4975757;28;20227;-93
2023/05/09 07:43:28;;;;;;;3.80;3.05;;;16.30;96.20;;;;;;4976231;28;20200;-93
2023/05/09 07:46:09;;;;;;;7.93;3.20;;;16.30;96.60;;;;;;4975883;28;20172;-92
2023/05/09 07:48:41;;;;;;;6.72;3.70;;;16.40;96.40;;;;;;4975592;28;20180;-92
2023/05/09 07:51:31;;;;;;;4.78;2.90;;;16.50;96.20;;;;;;4975705;28;20177;-92
2023/05/09 07:53:58;;;;;;;4.95;2.50;;;16.60;95.60;;;;;;4975187;28;20204;-93
2023/05/09 07:56:27;;;;;;;8.20;3.10;;;16.60;95.50;;;;;;4975397;28;20184;-92
2023/05/09 07:58:54;;;;;;;9.02;3.03;;;16.80;95.50;;;;;;4975573;28;20192;-92
2023/05/09 08:01:30;;;;;;;6.13;2.70;;;16.80;95.40;;;;;;4975335;28;20180;-91
2023/05/09 08:03:58;;;;;;;5.90;2.85;;;17.00;94.80;;;;;;4975062;28;20304;-93
2023/05/09 08:06:25;;;;;;;6.95;2.83;;;17.00;94.70;;;;;;4975149;28;20176;-92
2023/05/09 08:08:59;;;;;;;5.25;2.60;;;17.10;94.40;;;;;;4974975;28;20173;-92
2023/05/09 08:11:27;;;;;;;3.53;2.70;;;17.20;95.00;;;;;;4974822;28;20176;-93
2023/05/09 08:14:10;;;;;;;4.88;2.92;;;17.30;95.00;;;;;;4975392;28;20224;-93
2023/05/09 08:16:35;;;;;;;5.55;2.58;;;17.50;94.10;;;;;;4975236;28;20223;-93
2023/05/09 08:19:02;;;;;;;3.25;2.70;;;17.70;93.50;;;;;;4975202;28;20236;-93
2023/05/09 08:21:28;;;;;;;2.95;2.35;;;17.70;93.00;;;;;;4975742;28;20181;-94
2023/05/09 08:27:08;;;;;;;3.38;2.22;;;17.70;92.30;;;;;;4976297;28;20588;-94
2023/05/09 08:29:40;;;;;;;4.43;2.40;;;17.80;92.20;;;;;;4974994;28;20165;-92
2023/05/09 08:32:09;;;;;;;4.30;2.28;;;17.80;92.60;;;;;;4974779;28;20203;-93
2023/05/09 08:34:49;;;;;;;3.20;2.50;;;18.00;91.90;;;;;;4975151;28;20177;-93
2023/05/09 08:37:22;;;;;;;7.88;2.58;;;18.10;92.20;;;;;;4974628;28;20183;-93
2023/05/09 08:39:50;;;;;;;3.80;2.20;;;18.20;91.00;;;;;;4975014;28;20173;-93
2023/05/09 08:42:22;;;;;;;3.05;2.13;;;18.20;91.30;;;;;;4974783;28;20180;-93
2023/05/09 08:44:48;;;;;;;4.35;2.08;;;18.30;91.20;;;;;;4975460;28;20200;-93
2023/05/09 08:50:17;;;;;;;2.67;2.28;;;18.50;90.70;;;;;;4976145;28;20177;-94
2023/05/09 08:53:01;;;;;;;6.10;2.45;;;18.50;89.90;;;;;;4975657;28;20196;-93
2023/05/09 08:55:37;;;;;;;3.35;2.03;;;18.50;90.30;;;;;;4974757;28;20191;-93
2023/05/09 08:58:05;;;;;;;4.85;2.53;;;18.60;90.60;;;;;;4974993;28;20215;-93
2023/05/09 09:00:32;;;;;;;5.57;2.72;;;18.70;89.90;;;;;;4975123;28;20173;-93
2023/05/09 09:03:22;;;;;;;4.13;2.38;;;18.70;88.80;;;;;;4974499;28;20676;-91
2023/05/09 09:06:02;;;;;;;3.30;2.72;;;18.70;89.40;;;;;;4975336;28;20219;-93
2023/05/09 09:08:35;;;;;;;4.60;2.40;;;18.70;89.40;;;;;;4974082;28;20552;-93
2023/05/09 09:11:17;;;;;;;9.10;2.45;;;18.80;88.80;;;;;;4974503;28;20536;-92
2023/05/09 09:14:27;;;;;;;5.30;2.38;;;19.00;90.90;;;;;;4974162;28;20299;-92
2023/05/09 09:17:02;;;;;;;3.08;2.42;;;19.20;89.90;;;;;;4973553;28;20191;-92
2023/05/09 09:19:48;;;;;;;2.70;2.40;;;19.20;87.80;;;;;;4973751;28;20218;-93
2023/05/09 09:22:17;;;;;;;4.20;2.35;;;19.20;88.30;;;;;;4974099;28;20283;-92
2023/05/09 09:24:52;;;;;;;5.20;2.58;;;19.20;88.40;;;;;;4973529;28;20291;-94
2023/05/09 09:27:47;;;;;;;5.10;2.58;;;19.20;89.10;;;;;;4980418;28;20164;-92
2023/05/09 09:30:32;;;;;;;4.53;2.28;;;19.20;89.70;;;;;;4990176;28;20168;-93
2023/05/09 09:33:00;;;;;;;7.35;2.80;;;19.30;89.30;;;;;;4973595;28;20295;-93
2023/05/09 09:35:40;;;;;;;6.25;2.83;;;19.40;89.10;;;;;;4974284;28;20169;-93
2023/05/09 09:38:13;;;;;;;3.67;2.70;;;19.50;88.90;;;;;;4975206;28;20259;-93
2023/05/09 09:40:39;;;;;;;5.35;2.78;;;19.50;89.20;;;;;;4974233;28;20625;-92
2023/05/09 09:43:06;;;;;;;8.63;2.90;;;19.50;90.00;;;;;;4974259;28;20223;-93
2023/05/09 09:45:33;;;;;;;3.75;2.38;;;19.70;90.00;;;;;;4975742;28;20160;-93
2023/05/09 09:48:06;;;;;;;5.03;2.53;;;19.70;88.90;;;;;;4974412;28;20534;-90
2023/05/09 09:50:32;;;;;;;5.82;2.67;;;19.80;89.60;;;;;;4974186;28;20168;-92
2023/05/09 09:53:02;;;;;;;5.55;2.72;;;19.80;89.60;;;;;;4974502;28;20200;-93
2023/05/09 09:55:30;;;;;;;4.18;2.70;;;19.70;87.40;;;;;;4974773;28;20188;-94
2023/05/09 09:57:59;;;;;;;6.50;3.10;;;19.70;88.80;;;;;;4974140;28;20185;-93
2023/05/09 10:00:38;;;;;;;4.90;3.08;;;19.60;88.60;;;;;;4974236;28;20280;-93
2023/05/09 10:03:39;;;;;;;3.28;2.45;;;19.60;89.50;;;;;;4973844;28;20238;-93
2023/05/09 10:06:22;;;;;;;3.15;2.83;;;19.70;88.20;;;;;;4973813;28;20188;-91
2023/05/09 10:08:48;;;;;;;3.03;2.63;;;19.90;87.40;;;;;;4974070;28;20260;-92
2023/05/09 10:11:18;;;;;;;5.38;3.00;;;20.10;88.20;;;;;;4975143;28;20219;-92
2023/05/09 10:14:03;;;;;;;4.90;2.42;;;20.20;88.40;;;;;;4974164;28;20695;-93
2023/05/09 10:16:50;;;;;;;6.45;2.67;;;20.20;87.20;;;;;;4973598;28;20181;-91
2023/05/09 10:19:47;;;;;;;6.88;2.90;;;20.20;89.20;;;;;;4975617;28;20276;-93
2023/05/09 10:22:30;;;;;;;5.03;2.78;;;20.10;85.20;;;;;;4977253;28;20189;-91
2023/05/09 10:25:51;;;;;;;5.80;2.97;;;20.20;86.40;;;;;;4977332;28;20235;-91
2023/05/09 10:28:31;;;;;;;7.68;3.00;;;20.20;87.80;;;;;;4903029;29;20246;-92
2023/05/09 10:31:18;;;;;;;3.20;2.53;;;20.40;87.50;;;;;;4903369;29;20389;-94
2023/05/09 10:33:50;;;;;;;5.03;2.45;;;20.40;86.10;;;;;;4915455;29;20218;-92
2023/05/09 10:36:32;;;;;;;5.60;2.90;;;20.60;89.00;;;;;;4908014;29;20237;-92
2023/05/09 10:39:00;;;;;;;5.90;2.75;;;20.50;87.60;;;;;;4908706;29;20179;-92
2023/05/09 10:41:28;;;;;;;6.65;2.90;;;20.40;87.60;;;;;;4916656;29;20205;-92
2023/05/09 10:43:58;;;;;;;5.03;3.13;;;20.60;87.30;;;;;;4970880;28;20247;-93
2023/05/09 10:46:27;;;;;;;6.28;2.75;;;20.60;88.00;;;;;;4976894;28;20181;-92
2023/05/09 10:48:58;;;;;;;5.97;3.10;;;20.70;85.20;;;;;;4976888;28;20179;-92
2023/05/09 10:51:27;;;;;;;8.43;3.20;;;20.70;87.00;;;;;;4977183;28;20175;-92
2023/05/09 10:53:55;;;;;;;7.07;2.75;;;20.70;86.90;;;;;;4976415;28;20236;-92
2023/05/09 10:56:35;;;;;;;6.95;2.88;;;20.60;86.10;;;;;;4975667;28;20215;-92
2023/05/09 10:59:37;;;;;;;8.52;3.05;;;20.70;85.50;;;;;;4976044;28;20185;-91
2023/05/09 11:02:05;;;;;;;6.30;2.88;;;20.60;85.20;;;;;;4982308;28;20198;-92
2023/05/09 11:04:33;;;;;;;7.47;2.65;;;20.60;85.60;;;;;;4995704;28;20202;-92
2023/05/09 11:07:02;;;;;;;6.18;2.88;;;20.70;87.90;;;;;;4983656;28;20184;-93
2023/05/09 11:09:38;;;;;;;4.40;2.60;;;20.90;86.00;;;;;;4976436;28;20177;-92
2023/05/09 11:12:04;;;;;;;4.15;2.70;;;20.90;84.40;;;;;;4976155;28;20172;-92
2023/05/09 11:14:53;;;;;;;3.22;2.35;;;20.90;84.20;;;;;;4976574;28;20683;-92
2023/05/09 11:17:23;;;;;;;6.10;2.40;;;20.80;83.50;;;;;;4957004;28;20220;-96
2023/05/09 11:19:51;;;;;;;9.88;3.05;;;20.90;85.40;;;;;;4986582;28;20214;-92
2023/05/09 11:22:23;;;;;;;4.32;2.50;;;20.80;83.40;;;;;;4989288;28;20168;-93
2023/05/09 11:25:00;;;;;;;3.55;2.72;;;20.80;83.60;;;;;;4976309;28;20223;-93
2023/05/09 11:27:50;;;;;;;4.97;2.58;;;20.70;84.30;;;;;;4977020;28;20653;-93
2023/05/09 11:30:44;;;;;;;6.63;2.70;;;20.90;83.90;;;;;;4974599;28;20219;-92
2023/05/09 11:33:41;;;;;;;5.78;2.88;;;21.10;85.20;;;;;;4976655;28;20200;-94
2023/05/09 11:36:41;;;;;;;3.58;2.60;;;21.20;81.50;;;;;;4976677;28;20211;-92
2023/05/09 11:39:34;;;;;;;3.13;2.40;;;21.40;84.50;;;;;;4975948;28;20200;-93
2023/05/09 11:42:09;;;;;;;8.95;2.70;;;21.50;83.00;;;;;;4975732;28;20176;-92
2023/05/09 11:44:38;;;;;;;7.40;2.85;;;21.60;83.50;;;;;;4976369;28;20673;-91
2023/05/09 11:47:12;;;;;;;7.65;2.50;;;21.50;81.20;;;;;;4976253;28;20559;-93
2023/05/09 11:49:43;;;;;;;7.20;2.40;;;21.40;81.10;;;;;;4976231;28;20504;-94
2023/05/09 11:52:40;;;;;;;3.28;2.53;;;21.50;82.50;;;;;;4976227;28;20165;-93
2023/05/09 11:55:07;;;;;;;3.97;2.70;;;21.40;82.30;;;;;;4975488;28;20181;-94
2023/05/09 11:57:38;;;;;;;8.25;2.75;;;21.40;82.50;;;;;;4975755;28;20184;-93
2023/05/09 12:00:08;;;;;;;3.35;2.22;;;21.50;82.30;;;;;;4975571;28;20184;-93
2023/05/09 12:02:37;;;;;;;5.88;2.63;;;21.50;82.00;;;;;;4975742;28;20298;-92
2023/05/09 12:05:27;;;;;;;4.10;2.70;;;21.50;80.90;;;;;;4975370;28;20199;-94
2023/05/09 12:08:12;;;;;;;4.35;2.35;;;21.50;82.30;;;;;;4975714;28;20176;-95
2023/05/09 12:10:48;;;;;;;4.55;2.45;;;21.50;82.50;;;;;;4976927;28;20219;-93
2023/05/09 12:13:16;;;;;;;8.85;3.00;;;21.70;82.10;;;;;;4975928;28;20258;-93
2023/05/09 12:16:24;;;;;;;3.72;2.38;;;21.80;84.40;;;;;;4975589;28;20181;-93
2023/05/09 12:18:53;;;;;;;6.00;2.92;;;21.80;81.90;;;;;;4972814;28;20743;-93
2023/05/09 12:21:20;;;;;;;3.47;2.42;;;21.50;81.40;;;;;;4976198;28;20900;-91
2023/05/09 12:23:46;;;;;;;4.78;2.70;;;21.40;81.00;;;;;;4976002;28;20215;-95
2023/05/09 12:26:13;;;;;;;8.90;2.75;;;21.40;80.60;;;;;;4975329;28;20181;-94
2023/05/09 12:28:54;;;;;;;7.75;2.85;;;21.40;82.00;;;;;;4975628;28;20180;-94
2023/05/09 12:31:29;;;;;;;7.55;2.80;;;21.40;83.40;;;;;;4975145;28;20174;-94
2023/05/09 12:33:58;;;;;;;6.30;2.38;;;21.50;83.90;;;;;;4975148;28;20207;-94
2023/05/09 12:36:26;;;;;;;7.78;2.70;;;21.60;84.30;;;;;;4975034;28;20172;-94
2023/05/09 12:38:54;;;;;;;8.68;3.10;;;21.60;82.30;;;;;;4975114;28;20911;-94
2023/05/09 12:41:21;;;;;;;4.60;2.50;;;21.70;82.50;;;;;;4974559;28;20200;-94
2023/05/09 12:43:54;;;;;;;6.28;2.53;;;21.70;81.60;;;;;;4974033;28;20213;-93
2023/05/09 12:46:27;;;;;;;3.10;2.15;;;21.70;83.40;;;;;;4974962;28;20199;-94
2023/05/09 12:48:59;;;;;;;5.18;2.50;;;21.80;80.80;;;;;;4974678;28;20172;-91
2023/05/09 12:51:27;;;;;;;4.82;2.20;;;21.80;81.30;;;;;;4974072;28;20184;-93
2023/05/09 12:53:53;;;;;;;3.95;2.78;;;21.90;82.70;;;;;;4974625;28;20692;-91
2023/05/09 12:56:22;;;;;;;3.67;2.38;;;21.60;81.00;;;;;;4974066;28;20185;-94
2023/05/09 12:59:03;;;;;;;8.38;2.80;;;21.50;83.30;;;;;;4974393;28;20172;-93
2023/05/09 13:01:41;;;;;;;5.30;2.50;;;21.70;83.60;;;;;;4974258;28;20235;-92
2023/05/09 13:04:18;;;;;;;3.58;2.45;;;21.80;82.50;;;;;;4974273;28;20208;-94
2023/05/09 13:07:20;;;;;;;5.97;2.65;;;21.90;83.40;;;;;;4974541;28;20614;-94
2023/05/09 13:09:56;;;;;;;5.38;2.90;;;21.70;81.50;;;;;;4974300;28;20187;-93
2023/05/09 13:12:23;;;;;;;7.80;2.58;;;21.50;82.20;;;;;;4973971;28;20680;-94
2023/05/09 13:14:53;;;;;;;6.35;3.10;;;21.60;83.60;;;;;;4975025;28;20272;-93
2023/05/09 13:17:18;;;;;;;3.88;2.58;;;21.70;81.90;;;;;;4974073;28;20223;-94
2023/05/09 13:19:47;;;;;;;7.25;3.22;;;21.70;83.80;;;;;;4975423;28;20184;-94